Cape Scott — V3WM2 — position and weather

sailwx.info

Track history (hours):
 
Tides and Currents Weather Stations Pressure Air Temp Water Temp Dewpoint Dewpoint Depression Visibility Wind Speed Wind Dir Waves Ship Positions

Cape Scott

Last reported at 2018-Apr-17 18:39 UTC. Time now 2018-Apr-21 04:15 UTC.
Position N 37°25' E 025°55'.

Length 177 m; draft 10 m.

Type: Cargo ship. MMSI: 312417000.

Date/timePositionNaut miles runAvg speedWind from/ knotsBaromVisibWave heightAir tempDewpointWater temp
2018-Apr-17 18:39N 37°25' E 025°55'212.3
2018-Apr-17 18:30N 37°26' E 025°54'612.0
2018-Apr-17 18:01N 37°32' E 025°52'  
2018-Apr-12 03:04N 45°49' E 030°57'311.7
2018-Apr-12 02:51N 45°51' E 030°58'2210.1
2018-Apr-12 00:41N 46°13' E 030°56'310.1
2018-Apr-12 00:24N 46°16' E 030°54'511.3
2018-Apr-12 00:00N 46°20' E 030°55'611.4
2018-Apr-11 23:31N 46°26' E 030°55'611.3
2018-Apr-11 22:59N 46°32' E 030°55'6 9.3
2018-Apr-11 22:19N 46°34' E 031°03'310.2
2018-Apr-11 22:01N 46°35' E 031°08'611.5
2018-Apr-11 21:31N 46°35' E 031°16'611.3
2018-Apr-11 21:01N 46°34' E 031°24'5 9.4
2018-Apr-11 20:30N 46°35' E 031°31'510.7
2018-Apr-11 20:00N 46°36' E 031°39'510.9
2018-Apr-11 19:31N 46°36' E 031°47'510.5
2018-Apr-11 19:00N 46°38' E 031°54'510.0
2018-Apr-11 18:30N 46°42' E 031°56'5 9.7
2018-Apr-11 18:00N 46°47' E 031°53'510.1
2018-Apr-11 17:31N 46°51' E 031°57'5 9.4
2018-Apr-11 16:59N 46°55' E 032°01'2 3.9
2018-Apr-11 16:30N 46°57' E 031°60'0 0.1
2018-Apr-11 16:00N 46°57' E 031°60'0 0.0
2018-Apr-11 15:30N 46°57' E 031°60'0 0.0
2018-Apr-11 15:00N 46°57' E 031°60'0 0.0
2018-Apr-11 14:30N 46°57' E 031°60'0 0.0
2018-Apr-11 14:00N 46°57' E 031°60'0 0.0
2018-Apr-11 13:31N 46°57' E 031°60'0 0.0
2018-Apr-11 13:00N 46°57' E 031°60'0 0.0
2018-Apr-11 12:31N 46°57' E 031°60'0 0.0
2018-Apr-11 12:00N 46°57' E 031°60'0 0.0
2018-Apr-11 11:31N 46°57' E 031°60'0 0.0
2018-Apr-11 10:59N 46°57' E 031°60'0 0.0
2018-Apr-11 10:29N 46°57' E 031°60'0 0.0
2018-Apr-11 09:59N 46°57' E 031°60'0 0.0
2018-Apr-11 09:29N 46°57' E 031°60'0 0.0
2018-Apr-11 08:59N 46°57' E 031°60'0 0.0
2018-Apr-11 08:29N 46°57' E 031°60'0 0.0
2018-Apr-11 07:59N 46°57' E 031°60'0 0.0
2018-Apr-11 07:29N 46°57' E 031°60'0 0.0
2018-Apr-11 06:59N 46°57' E 031°60'0 0.0
2018-Apr-11 06:29N 46°57' E 031°60'0 0.0
2018-Apr-11 05:59N 46°57' E 031°60'0 0.0
2018-Apr-11 05:29N 46°57' E 031°60'0 0.0
2018-Apr-11 04:59N 46°57' E 031°60'0 0.0
2018-Apr-11 04:26N 46°57' E 031°60'0 0.0
2018-Apr-11 03:59N 46°57' E 031°60'0 0.0
2018-Apr-11 03:29N 46°57' E 031°60'0 0.0
2018-Apr-11 02:59N 46°57' E 031°60'0 0.0
2018-Apr-11 02:29N 46°57' E 031°60'0 0.0
2018-Apr-11 01:59N 46°57' E 031°60'0 0.0
2018-Apr-11 01:29N 46°57' E 031°60'0 0.0
2018-Apr-11 00:59N 46°57' E 031°60'0 0.0
2018-Apr-11 00:29N 46°57' E 031°60'0 0.0
2018-Apr-10 23:56N 46°57' E 031°60'0 0.0
2018-Apr-10 23:29N 46°57' E 031°60'0 0.0
2018-Apr-10 22:56N 46°57' E 031°60'0 0.0
2018-Apr-10 22:29N 46°57' E 031°60'0 0.0
2018-Apr-10 21:59N 46°57' E 031°60'0 0.0
2018-Apr-10 21:29N 46°57' E 031°60'0 0.0
2018-Apr-10 20:59N 46°57' E 031°60'0 0.0
2018-Apr-10 20:29N 46°57' E 031°60'0 0.0
2018-Apr-10 19:59N 46°57' E 031°60'0 0.0
2018-Apr-10 19:29N 46°57' E 031°60'0 0.0
2018-Apr-10 18:59N 46°57' E 031°60'0 0.0
2018-Apr-10 17:53N 46°57' E 031°60'0 0.0
2018-Apr-10 17:29N 46°57' E 031°60'0 0.0
2018-Apr-10 16:59N 46°57' E 031°60'0 0.0
2018-Apr-10 16:29N 46°57' E 031°60'0 0.0
2018-Apr-10 15:59N 46°57' E 031°60'0 0.0
2018-Apr-10 15:29N 46°57' E 031°60'0 0.0
2018-Apr-10 14:59N 46°57' E 031°60'0 0.0
2018-Apr-10 14:29N 46°57' E 031°60'0 0.0
2018-Apr-10 13:59N 46°57' E 031°60'0 0.0
2018-Apr-10 13:29N 46°57' E 031°60'0 0.0
2018-Apr-10 12:56N 46°57' E 031°60'0 0.0
2018-Apr-10 12:29N 46°57' E 031°60'0 0.0
2018-Apr-10 11:59N 46°57' E 031°60'0 0.0
2018-Apr-10 11:29N 46°57' E 031°60'0 0.0
2018-Apr-10 10:59N 46°57' E 031°60'0 0.0
2018-Apr-10 10:29N 46°57' E 031°60'0 0.0
2018-Apr-10 09:59N 46°57' E 031°60'0 0.0
2018-Apr-10 09:29N 46°57' E 031°60'0 0.0
2018-Apr-10 08:59N 46°57' E 031°60'0 0.0
2018-Apr-10 08:29N 46°57' E 031°60'0 0.0
2018-Apr-10 07:56N 46°57' E 031°60'0 0.0
2018-Apr-10 07:29N 46°57' E 031°60'0 0.0
2018-Apr-10 06:59N 46°57' E 031°60'0 0.0
2018-Apr-10 06:26N 46°57' E 031°60'0 0.0
2018-Apr-10 05:59N 46°57' E 031°60'0 0.0
2018-Apr-10 05:29N 46°57' E 031°60'0 0.0
2018-Apr-10 04:59N 46°57' E 031°60'0 0.0
2018-Apr-10 04:29N 46°57' E 031°60'0 0.0
2018-Apr-10 03:59N 46°57' E 031°60'0 0.0
2018-Apr-10 03:29N 46°57' E 031°60'0 0.0
2018-Apr-10 02:59N 46°57' E 031°60'0 0.0
2018-Apr-10 02:29N 46°57' E 031°60'0 0.0
2018-Apr-10 01:59N 46°57' E 031°60'0 0.0
2018-Apr-10 01:29N 46°57' E 031°60'0 0.0
2018-Apr-10 00:59N 46°57' E 031°60'0 0.0
2018-Apr-10 00:29N 46°57' E 031°60'0 0.0
2018-Apr-09 23:59N 46°57' E 031°60'0 0.0
2018-Apr-09 23:29N 46°57' E 031°60'0 0.0
2018-Apr-09 22:59N 46°57' E 031°60'0 0.0
2018-Apr-09 22:29N 46°57' E 031°60'0 0.0
2018-Apr-09 21:59N 46°57' E 031°60'0 0.0
2018-Apr-09 21:29N 46°57' E 031°60'0 0.0
2018-Apr-09 20:59N 46°57' E 031°60'0 0.0
2018-Apr-09 20:29N 46°57' E 031°60'0 0.0
2018-Apr-09 19:59N 46°57' E 031°60'0 0.0
2018-Apr-09 19:29N 46°57' E 031°60'0 0.0
2018-Apr-09 18:59N 46°57' E 031°60'0 0.0
2018-Apr-09 18:29N 46°57' E 031°60'0 0.0
2018-Apr-09 17:59N 46°57' E 031°60'0 0.0
2018-Apr-09 17:23N 46°57' E 031°60'0 0.0
2018-Apr-09 16:59N 46°57' E 031°60'0 0.0
2018-Apr-09 16:29N 46°57' E 031°60'0 0.0
2018-Apr-09 15:59N 46°57' E 031°60'0 0.0
2018-Apr-09 15:29N 46°57' E 031°60'0 0.0
2018-Apr-09 14:59N 46°57' E 031°60'0 0.0
2018-Apr-09 14:29N 46°57' E 031°60'0 0.0
2018-Apr-09 13:59N 46°57' E 031°60'0 0.0
2018-Apr-09 13:29N 46°57' E 031°60'0 0.0
2018-Apr-09 12:59N 46°57' E 031°60'0 0.0
2018-Apr-09 12:29N 46°57' E 031°60'0 0.0
2018-Apr-09 11:59N 46°57' E 031°60'0 0.0
2018-Apr-09 11:29N 46°57' E 031°60'0 0.0
2018-Apr-09 10:59N 46°57' E 031°60'0 0.0
2018-Apr-09 10:29N 46°57' E 031°60'0 0.0
2018-Apr-09 09:59N 46°57' E 031°60'0 0.0
2018-Apr-09 09:29N 46°57' E 031°60'0 0.0
2018-Apr-09 08:59N 46°57' E 031°60'0 0.0
2018-Apr-09 08:29N 46°57' E 031°60'0 0.0
2018-Apr-09 07:59N 46°57' E 031°60'0 0.0
2018-Apr-09 07:29N 46°57' E 031°60'0 0.0
2018-Apr-09 06:59N 46°57' E 031°60'0 0.0
2018-Apr-09 06:29N 46°57' E 031°60'0 0.0
2018-Apr-09 05:59N 46°57' E 031°60'0 0.0
2018-Apr-09 05:29N 46°57' E 031°60'0 0.0
2018-Apr-09 04:59N 46°57' E 031°60'0 0.0
2018-Apr-09 04:29N 46°57' E 031°60'0 0.0
2018-Apr-09 03:59N 46°57' E 031°60'0 0.0
2018-Apr-09 03:29N 46°57' E 031°60'0 0.0
2018-Apr-09 02:59N 46°57' E 031°60'0 0.0
2018-Apr-09 02:29N 46°57' E 031°60'0 0.0
2018-Apr-09 01:59N 46°57' E 031°60'0 0.0
2018-Apr-09 01:29N 46°57' E 031°60'0 0.0
2018-Apr-09 00:59N 46°57' E 031°60'0 0.0
2018-Apr-09 00:29N 46°57' E 031°60'0 0.0
2018-Apr-08 23:59N 46°57' E 031°60'0 0.0
2018-Apr-08 23:29N 46°57' E 031°60'0 0.0
2018-Apr-08 22:59N 46°57' E 031°60'0 0.0
2018-Apr-08 22:29N 46°57' E 031°60'0 0.0
2018-Apr-08 21:59N 46°57' E 031°60'0 0.0
2018-Apr-08 21:29N 46°57' E 031°60'0 0.0
2018-Apr-08 20:59N 46°57' E 031°60'0 0.0
2018-Apr-08 20:29N 46°57' E 031°60'0 0.0
2018-Apr-08 19:59N 46°57' E 031°60'0 0.0
2018-Apr-08 19:29N 46°57' E 031°60'0 0.0
2018-Apr-08 18:59N 46°57' E 031°60'0 0.0
2018-Apr-08 18:29N 46°57' E 031°60'0 0.0
2018-Apr-08 17:59N 46°57' E 031°60'0 0.0
2018-Apr-08 17:29N 46°57' E 031°60'0 0.0
2018-Apr-08 16:59N 46°57' E 031°60'0 0.0
2018-Apr-08 16:29N 46°57' E 031°60'0 0.0
2018-Apr-08 15:59N 46°57' E 031°60'0 0.0
2018-Apr-08 15:29N 46°57' E 031°60'0 0.0
2018-Apr-08 14:59N 46°57' E 031°60'0 0.0
2018-Apr-08 14:29N 46°57' E 031°60'0 0.0
2018-Apr-08 13:59N 46°57' E 031°60'0 0.0
2018-Apr-08 13:29N 46°57' E 031°60'0 0.5
2018-Apr-08 12:59N 46°57' E 031°60'0 0.1
2018-Apr-08 12:29N 46°57' E 031°60'0 0.0
2018-Apr-08 11:59N 46°57' E 031°60'0 0.0
2018-Apr-08 11:29N 46°57' E 031°60'0 0.0
2018-Apr-08 10:59N 46°57' E 031°60'0 0.0
2018-Apr-08 10:29N 46°56' E 031°60'0 0.0
2018-Apr-08 09:59N 46°56' E 031°60'0 0.0
2018-Apr-08 09:29N 46°57' E 031°60'0 0.0
2018-Apr-08 08:59N 46°56' E 031°60'0 0.1
2018-Apr-08 08:29N 46°57' E 031°60'0 0.0
2018-Apr-08 07:59N 46°57' E 031°60'0 0.1
2018-Apr-08 07:29N 46°56' E 031°60'0 0.0
2018-Apr-08 06:59N 46°56' E 031°60'0 0.0
2018-Apr-08 06:29N 46°56' E 031°60'0 0.0
2018-Apr-08 05:59N 46°56' E 031°60'0 0.0
2018-Apr-08 05:29N 46°56' E 031°60'0 0.1
2018-Apr-08 04:59N 46°56' E 031°60'0 0.0
2018-Apr-08 04:29N 46°56' E 031°60'0 0.1
2018-Apr-08 03:59N 46°56' E 031°60'0 0.0
2018-Apr-08 03:29N 46°56' E 031°60'0 0.0
2018-Apr-08 02:59N 46°56' E 031°60'0 0.0
2018-Apr-08 02:29N 46°56' E 031°60'0 0.0
2018-Apr-08 01:56N 46°56' E 031°60'0 0.1
2018-Apr-08 01:29N 46°56' E 031°60'0 0.1
2018-Apr-08 00:59N 46°56' E 031°60'0 0.0
2018-Apr-08 00:29N 46°56' E 031°60'0 0.1
2018-Apr-07 23:59N 46°56' E 031°60'0 0.0
2018-Apr-07 23:29N 46°56' E 031°60'0 0.1
2018-Apr-07 22:59N 46°56' E 031°60'0 0.1
2018-Apr-07 22:29N 46°56' E 031°60'0 0.0
2018-Apr-07 21:59N 46°56' E 031°60'0 0.0
2018-Apr-07 21:29N 46°56' E 031°60'0 0.0
2018-Apr-07 20:59N 46°56' E 031°60'0 0.0
2018-Apr-07 20:29N 46°56' E 031°60'0 0.0
2018-Apr-07 19:59N 46°56' E 031°60'0 0.0
2018-Apr-07 19:29N 46°56' E 031°60'0 0.0
2018-Apr-07 18:59N 46°56' E 031°60'  
Track history (hours):
 
Tides and Currents Weather Stations Pressure Air Temp Water Temp Dewpoint Dewpoint Depression Visibility Wind Speed Wind Dir Waves Ship Positions

Cape Scott

Last reported at 2018-Apr-17 18:39 UTC. Time now 2018-Apr-21 04:15 UTC.
Position N 37°25' E 025°55'.

Length 177 m; draft 10 m.

Type: Cargo ship. MMSI: 312417000.

Date/timePositionNaut miles runAvg speedWind from/ knotsBaromVisibWave heightAir tempDewpointWater temp
2018-Apr-17 18:39N 37°25' E 025°55'212.3
2018-Apr-17 18:30N 37°26' E 025°54'612.0
2018-Apr-17 18:01N 37°32' E 025°52'  
2018-Apr-12 03:04N 45°49' E 030°57'311.7
2018-Apr-12 02:51N 45°51' E 030°58'2210.1
2018-Apr-12 00:41N 46°13' E 030°56'310.1
2018-Apr-12 00:24N 46°16' E 030°54'511.3
2018-Apr-12 00:00N 46°20' E 030°55'611.4
2018-Apr-11 23:31N 46°26' E 030°55'611.3
2018-Apr-11 22:59N 46°32' E 030°55'6 9.3
2018-Apr-11 22:19N 46°34' E 031°03'310.2
2018-Apr-11 22:01N 46°35' E 031°08'611.5
2018-Apr-11 21:31N 46°35' E 031°16'611.3
2018-Apr-11 21:01N 46°34' E 031°24'5 9.4
2018-Apr-11 20:30N 46°35' E 031°31'510.7
2018-Apr-11 20:00N 46°36' E 031°39'510.9
2018-Apr-11 19:31N 46°36' E 031°47'510.5
2018-Apr-11 19:00N 46°38' E 031°54'510.0
2018-Apr-11 18:30N 46°42' E 031°56'5 9.7
2018-Apr-11 18:00N 46°47' E 031°53'510.1
2018-Apr-11 17:31N 46°51' E 031°57'5 9.4
2018-Apr-11 16:59N 46°55' E 032°01'2 3.9
2018-Apr-11 16:30N 46°57' E 031°60'0 0.1
2018-Apr-11 16:00N 46°57' E 031°60'0 0.0
2018-Apr-11 15:30N 46°57' E 031°60'0 0.0
2018-Apr-11 15:00N 46°57' E 031°60'0 0.0
2018-Apr-11 14:30N 46°57' E 031°60'0 0.0
2018-Apr-11 14:00N 46°57' E 031°60'0 0.0
2018-Apr-11 13:31N 46°57' E 031°60'0 0.0
2018-Apr-11 13:00N 46°57' E 031°60'0 0.0
2018-Apr-11 12:31N 46°57' E 031°60'0 0.0
2018-Apr-11 12:00N 46°57' E 031°60'0 0.0
2018-Apr-11 11:31N 46°57' E 031°60'0 0.0
2018-Apr-11 10:59N 46°57' E 031°60'0 0.0
2018-Apr-11 10:29N 46°57' E 031°60'0 0.0
2018-Apr-11 09:59N 46°57' E 031°60'0 0.0
2018-Apr-11 09:29N 46°57' E 031°60'0 0.0
2018-Apr-11 08:59N 46°57' E 031°60'0 0.0
2018-Apr-11 08:29N 46°57' E 031°60'0 0.0
2018-Apr-11 07:59N 46°57' E 031°60'0 0.0
2018-Apr-11 07:29N 46°57' E 031°60'0 0.0
2018-Apr-11 06:59N 46°57' E 031°60'0 0.0
2018-Apr-11 06:29N 46°57' E 031°60'0 0.0
2018-Apr-11 05:59N 46°57' E 031°60'0 0.0
2018-Apr-11 05:29N 46°57' E 031°60'0 0.0
2018-Apr-11 04:59N 46°57' E 031°60'0 0.0
2018-Apr-11 04:26N 46°57' E 031°60'0 0.0
2018-Apr-11 03:59N 46°57' E 031°60'0 0.0
2018-Apr-11 03:29N 46°57' E 031°60'0 0.0
2018-Apr-11 02:59N 46°57' E 031°60'0 0.0
2018-Apr-11 02:29N 46°57' E 031°60'0 0.0
2018-Apr-11 01:59N 46°57' E 031°60'0 0.0
2018-Apr-11 01:29N 46°57' E 031°60'0 0.0
2018-Apr-11 00:59N 46°57' E 031°60'0 0.0
2018-Apr-11 00:29N 46°57' E 031°60'0 0.0
2018-Apr-10 23:56N 46°57' E 031°60'0 0.0
2018-Apr-10 23:29N 46°57' E 031°60'0 0.0
2018-Apr-10 22:56N 46°57' E 031°60'0 0.0
2018-Apr-10 22:29N 46°57' E 031°60'0 0.0
2018-Apr-10 21:59N 46°57' E 031°60'0 0.0
2018-Apr-10 21:29N 46°57' E 031°60'0 0.0
2018-Apr-10 20:59N 46°57' E 031°60'0 0.0
2018-Apr-10 20:29N 46°57' E 031°60'0 0.0
2018-Apr-10 19:59N 46°57' E 031°60'0 0.0
2018-Apr-10 19:29N 46°57' E 031°60'0 0.0
2018-Apr-10 18:59N 46°57' E 031°60'0 0.0
2018-Apr-10 17:53N 46°57' E 031°60'0 0.0
2018-Apr-10 17:29N 46°57' E 031°60'0 0.0
2018-Apr-10 16:59N 46°57' E 031°60'0 0.0
2018-Apr-10 16:29N 46°57' E 031°60'0 0.0
2018-Apr-10 15:59N 46°57' E 031°60'0 0.0
2018-Apr-10 15:29N 46°57' E 031°60'0 0.0
2018-Apr-10 14:59N 46°57' E 031°60'0 0.0
2018-Apr-10 14:29N 46°57' E 031°60'0 0.0
2018-Apr-10 13:59N 46°57' E 031°60'0 0.0
2018-Apr-10 13:29N 46°57' E 031°60'0 0.0
2018-Apr-10 12:56N 46°57' E 031°60'0 0.0
2018-Apr-10 12:29N 46°57' E 031°60'0 0.0
2018-Apr-10 11:59N 46°57' E 031°60'0 0.0
2018-Apr-10 11:29N 46°57' E 031°60'0 0.0
2018-Apr-10 10:59N 46°57' E 031°60'0 0.0
2018-Apr-10 10:29N 46°57' E 031°60'0 0.0
2018-Apr-10 09:59N 46°57' E 031°60'0 0.0
2018-Apr-10 09:29N 46°57' E 031°60'0 0.0
2018-Apr-10 08:59N 46°57' E 031°60'0 0.0
2018-Apr-10 08:29N 46°57' E 031°60'0 0.0
2018-Apr-10 07:56N 46°57' E 031°60'0 0.0
2018-Apr-10 07:29N 46°57' E 031°60'0 0.0
2018-Apr-10 06:59N 46°57' E 031°60'0 0.0
2018-Apr-10 06:26N 46°57' E 031°60'0 0.0
2018-Apr-10 05:59N 46°57' E 031°60'0 0.0
2018-Apr-10 05:29N 46°57' E 031°60'0 0.0
2018-Apr-10 04:59N 46°57' E 031°60'0 0.0
2018-Apr-10 04:29N 46°57' E 031°60'0 0.0
2018-Apr-10 03:59N 46°57' E 031°60'0 0.0
2018-Apr-10 03:29N 46°57' E 031°60'0 0.0
2018-Apr-10 02:59N 46°57' E 031°60'0 0.0
2018-Apr-10 02:29N 46°57' E 031°60'0 0.0
2018-Apr-10 01:59N 46°57' E 031°60'0 0.0
2018-Apr-10 01:29N 46°57' E 031°60'0 0.0
2018-Apr-10 00:59N 46°57' E 031°60'0 0.0
2018-Apr-10 00:29N 46°57' E 031°60'0 0.0
2018-Apr-09 23:59N 46°57' E 031°60'0 0.0
2018-Apr-09 23:29N 46°57' E 031°60'0 0.0
2018-Apr-09 22:59N 46°57' E 031°60'0 0.0
2018-Apr-09 22:29N 46°57' E 031°60'0 0.0
2018-Apr-09 21:59N 46°57' E 031°60'0 0.0
2018-Apr-09 21:29N 46°57' E 031°60'0 0.0
2018-Apr-09 20:59N 46°57' E 031°60'0 0.0
2018-Apr-09 20:29N 46°57' E 031°60'0 0.0
2018-Apr-09 19:59N 46°57' E 031°60'0 0.0
2018-Apr-09 19:29N 46°57' E 031°60'0 0.0
2018-Apr-09 18:59N 46°57' E 031°60'0 0.0
2018-Apr-09 18:29N 46°57' E 031°60'0 0.0
2018-Apr-09 17:59N 46°57' E 031°60'0 0.0
2018-Apr-09 17:23N 46°57' E 031°60'0 0.0
2018-Apr-09 16:59N 46°57' E 031°60'0 0.0
2018-Apr-09 16:29N 46°57' E 031°60'0 0.0
2018-Apr-09 15:59N 46°57' E 031°60'0 0.0
2018-Apr-09 15:29N 46°57' E 031°60'0 0.0
2018-Apr-09 14:59N 46°57' E 031°60'0 0.0
2018-Apr-09 14:29N 46°57' E 031°60'0 0.0
2018-Apr-09 13:59N 46°57' E 031°60'0 0.0
2018-Apr-09 13:29N 46°57' E 031°60'0 0.0
2018-Apr-09 12:59N 46°57' E 031°60'0 0.0
2018-Apr-09 12:29N 46°57' E 031°60'0 0.0
2018-Apr-09 11:59N 46°57' E 031°60'0 0.0
2018-Apr-09 11:29N 46°57' E 031°60'0 0.0
2018-Apr-09 10:59N 46°57' E 031°60'0 0.0
2018-Apr-09 10:29N 46°57' E 031°60'0 0.0
2018-Apr-09 09:59N 46°57' E 031°60'0 0.0
2018-Apr-09 09:29N 46°57' E 031°60'0 0.0
2018-Apr-09 08:59N 46°57' E 031°60'0 0.0
2018-Apr-09 08:29N 46°57' E 031°60'0 0.0
2018-Apr-09 07:59N 46°57' E 031°60'0 0.0
2018-Apr-09 07:29N 46°57' E 031°60'0 0.0
2018-Apr-09 06:59N 46°57' E 031°60'0 0.0
2018-Apr-09 06:29N 46°57' E 031°60'0 0.0
2018-Apr-09 05:59N 46°57' E 031°60'0 0.0
2018-Apr-09 05:29N 46°57' E 031°60'0 0.0
2018-Apr-09 04:59N 46°57' E 031°60'0 0.0
2018-Apr-09 04:29N 46°57' E 031°60'0 0.0
2018-Apr-09 03:59N 46°57' E 031°60'0 0.0
2018-Apr-09 03:29N 46°57' E 031°60'0 0.0
2018-Apr-09 02:59N 46°57' E 031°60'0 0.0
2018-Apr-09 02:29N 46°57' E 031°60'0 0.0
2018-Apr-09 01:59N 46°57' E 031°60'0 0.0
2018-Apr-09 01:29N 46°57' E 031°60'0 0.0
2018-Apr-09 00:59N 46°57' E 031°60'0 0.0
2018-Apr-09 00:29N 46°57' E 031°60'0 0.0
2018-Apr-08 23:59N 46°57' E 031°60'0 0.0
2018-Apr-08 23:29N 46°57' E 031°60'0 0.0
2018-Apr-08 22:59N 46°57' E 031°60'0 0.0
2018-Apr-08 22:29N 46°57' E 031°60'0 0.0
2018-Apr-08 21:59N 46°57' E 031°60'0 0.0
2018-Apr-08 21:29N 46°57' E 031°60'0 0.0
2018-Apr-08 20:59N 46°57' E 031°60'0 0.0
2018-Apr-08 20:29N 46°57' E 031°60'0 0.0
2018-Apr-08 19:59N 46°57' E 031°60'0 0.0
2018-Apr-08 19:29N 46°57' E 031°60'0 0.0
2018-Apr-08 18:59N 46°57' E 031°60'0 0.0
2018-Apr-08 18:29N 46°57' E 031°60'0 0.0
2018-Apr-08 17:59N 46°57' E 031°60'0 0.0
2018-Apr-08 17:29N 46°57' E 031°60'0 0.0
2018-Apr-08 16:59N 46°57' E 031°60'0 0.0
2018-Apr-08 16:29N 46°57' E 031°60'0 0.0
2018-Apr-08 15:59N 46°57' E 031°60'0 0.0
2018-Apr-08 15:29N 46°57' E 031°60'0 0.0
2018-Apr-08 14:59N 46°57' E 031°60'0 0.0
2018-Apr-08 14:29N 46°57' E 031°60'0 0.0
2018-Apr-08 13:59N 46°57' E 031°60'0 0.0
2018-Apr-08 13:29N 46°57' E 031°60'0 0.5
2018-Apr-08 12:59N 46°57' E 031°60'0 0.1
2018-Apr-08 12:29N 46°57' E 031°60'0 0.0
2018-Apr-08 11:59N 46°57' E 031°60'0 0.0
2018-Apr-08 11:29N 46°57' E 031°60'0 0.0
2018-Apr-08 10:59N 46°57' E 031°60'0 0.0
2018-Apr-08 10:29N 46°56' E 031°60'0 0.0
2018-Apr-08 09:59N 46°56' E 031°60'0 0.0
2018-Apr-08 09:29N 46°57' E 031°60'0 0.0
2018-Apr-08 08:59N 46°56' E 031°60'0 0.1
2018-Apr-08 08:29N 46°57' E 031°60'0 0.0
2018-Apr-08 07:59N 46°57' E 031°60'0 0.1
2018-Apr-08 07:29N 46°56' E 031°60'0 0.0
2018-Apr-08 06:59N 46°56' E 031°60'0 0.0
2018-Apr-08 06:29N 46°56' E 031°60'0 0.0
2018-Apr-08 05:59N 46°56' E 031°60'0 0.0
2018-Apr-08 05:29N 46°56' E 031°60'0 0.1
2018-Apr-08 04:59N 46°56' E 031°60'0 0.0
2018-Apr-08 04:29N 46°56' E 031°60'0 0.1
2018-Apr-08 03:59N 46°56' E 031°60'0 0.0
2018-Apr-08 03:29N 46°56' E 031°60'0 0.0
2018-Apr-08 02:59N 46°56' E 031°60'0 0.0
2018-Apr-08 02:29N 46°56' E 031°60'0 0.0
2018-Apr-08 01:56N 46°56' E 031°60'0 0.1
2018-Apr-08 01:29N 46°56' E 031°60'0 0.1
2018-Apr-08 00:59N 46°56' E 031°60'0 0.0
2018-Apr-08 00:29N 46°56' E 031°60'0 0.1
2018-Apr-07 23:59N 46°56' E 031°60'0 0.0
2018-Apr-07 23:29N 46°56' E 031°60'0 0.1
2018-Apr-07 22:59N 46°56' E 031°60'0 0.1
2018-Apr-07 22:29N 46°56' E 031°60'0 0.0
2018-Apr-07 21:59N 46°56' E 031°60'0 0.0
2018-Apr-07 21:29N 46°56' E 031°60'0 0.0
2018-Apr-07 20:59N 46°56' E 031°60'0 0.0
2018-Apr-07 20:29N 46°56' E 031°60'0 0.0
2018-Apr-07 19:59N 46°56' E 031°60'0 0.0
2018-Apr-07 19:29N 46°56' E 031°60'0 0.0
2018-Apr-07 18:59N 46°56' E 031°60'  

Dump ship's entire track history